createdAt,value
2022-10-05T00:01:55.239Z,58.00
2022-10-05T00:04:23.913Z,60.50
2022-10-05T00:06:58.071Z,59.20
2022-10-05T00:09:24.830Z,57.90
2022-10-05T00:11:51.894Z,57.90
2022-10-05T00:14:34.930Z,57.90
2022-10-05T00:17:04.394Z,59.80
2022-10-05T00:19:32.700Z,57.90
2022-10-05T00:22:16.035Z,57.90
2022-10-05T00:24:44.462Z,57.90
2022-10-05T00:27:36.525Z,58.50
2022-10-05T00:30:18.622Z,58.50
2022-10-05T00:32:45.987Z,57.80
2022-10-05T00:35:14.242Z,58.70
2022-10-05T00:37:41.625Z,57.80
2022-10-05T00:40:26.354Z,57.80
2022-10-05T00:43:19.255Z,57.80
2022-10-05T00:46:00.030Z,58.40
2022-10-05T00:48:47.112Z,57.80
2022-10-05T00:51:33.214Z,57.70
2022-10-05T00:54:25.021Z,58.90
2022-10-05T00:57:21.307Z,58.30
2022-10-05T01:00:08.675Z,57.70
2022-10-05T01:03:01.318Z,57.70
2022-10-05T01:05:47.117Z,57.70
2022-10-05T01:08:16.833Z,58.20
2022-10-05T01:11:03.913Z,57.60
2022-10-05T01:14:02.072Z,58.20
2022-10-05T01:16:59.489Z,57.70
2022-10-05T01:19:50.734Z,57.60
2022-10-05T01:22:44.947Z,57.70
2022-10-05T01:25:41.096Z,57.80
2022-10-05T01:28:31.171Z,58.30
2022-10-05T01:31:18.665Z,58.30
2022-10-05T01:34:05.780Z,57.80
2022-10-05T01:36:51.329Z,57.80
2022-10-05T01:39:34.900Z,57.80
2022-10-05T01:42:06.022Z,57.80
2022-10-05T01:45:09.935Z,57.80
2022-10-05T01:47:54.899Z,58.40
2022-10-05T01:50:34.032Z,58.40
2022-10-05T01:53:08.016Z,57.80
2022-10-05T01:56:02.223Z,57.80
2022-10-05T01:58:41.014Z,58.40
2022-10-05T02:01:28.078Z,57.70
2022-10-05T02:04:05.971Z,57.70
2022-10-05T02:06:41.735Z,57.70
2022-10-05T02:09:14.773Z,57.60
2022-10-05T02:11:58.770Z,57.60
2022-10-05T02:14:32.959Z,59.60
2022-10-05T02:17:05.474Z,57.60
2022-10-05T02:19:39.160Z,59.40
2022-10-05T02:22:10.154Z,57.60
2022-10-05T02:24:47.908Z,57.60
2022-10-05T02:27:21.304Z,57.50
2022-10-05T02:29:53.182Z,57.50
2022-10-05T02:32:27.118Z,57.50
2022-10-05T02:35:01.718Z,57.50
2022-10-05T02:37:39.978Z,58.90
2022-10-05T02:40:25.311Z,58.00
2022-10-05T02:43:18.206Z,59.10
2022-10-05T02:45:51.331Z,57.40
2022-10-05T02:49:00.311Z,57.40
2022-10-05T02:51:53.208Z,57.40
2022-10-05T02:54:31.520Z,58.10
2022-10-05T02:57:07.130Z,57.50
2022-10-05T03:00:05.675Z,57.50
2022-10-05T03:02:52.766Z,57.50
2022-10-05T03:05:27.982Z,57.50
2022-10-05T03:08:04.224Z,57.60
2022-10-05T03:10:48.266Z,57.50
2022-10-05T03:13:35.599Z,57.60
2022-10-05T03:16:08.753Z,57.60
2022-10-05T03:18:55.430Z,57.50
2022-10-05T03:21:48.457Z,57.50
2022-10-05T03:24:18.317Z,57.50
2022-10-05T03:26:45.471Z,58.10
2022-10-05T03:29:31.243Z,57.60
2022-10-05T03:32:07.598Z,58.10
2022-10-05T03:35:23.940Z,57.60
2022-10-05T03:38:01.937Z,57.60
2022-10-05T03:40:57.758Z,58.20
2022-10-05T03:43:58.898Z,57.70
2022-10-05T03:46:57.411Z,58.50
2022-10-05T03:49:52.568Z,58.30
2022-10-05T03:52:27.362Z,57.70
2022-10-05T03:54:54.419Z,58.30
2022-10-05T03:57:25.322Z,57.70
2022-10-05T04:00:04.742Z,59.90
2022-10-05T04:02:48.055Z,58.40
2022-10-05T04:05:24.643Z,58.50
2022-10-05T04:07:58.574Z,59.80
2022-10-05T04:10:38.942Z,57.80
2022-10-05T04:13:11.199Z,57.80
2022-10-05T04:16:19.406Z,57.80
2022-10-05T04:19:13.600Z,57.80
2022-10-05T04:21:46.835Z,57.80
2022-10-05T04:24:18.806Z,57.80
2022-10-05T04:26:57.721Z,57.80
2022-10-05T04:29:41.931Z,57.80
2022-10-05T04:35:11.095Z,57.80
2022-10-05T04:38:27.968Z,57.80
2022-10-05T04:41:15.148Z,58.40
2022-10-05T04:44:14.838Z,57.80
2022-10-05T04:47:08.778Z,57.80
2022-10-05T04:50:03.701Z,57.80
2022-10-05T04:52:55.487Z,58.40
2022-10-05T04:55:34.682Z,57.90
2022-10-05T04:58:06.898Z,57.90
2022-10-05T05:00:49.133Z,57.90
2022-10-05T05:03:18.940Z,57.90
2022-10-05T05:06:17.446Z,58.50
2022-10-05T05:09:08.695Z,58.50
2022-10-05T05:11:38.615Z,58.50
2022-10-05T05:14:23.581Z,57.90
2022-10-05T05:17:13.117Z,57.90
2022-10-05T05:19:52.782Z,57.90
2022-10-05T05:22:46.799Z,58.50
2022-10-05T05:25:32.396Z,58.50
2022-10-05T05:28:24.233Z,57.90
2022-10-05T05:31:12.717Z,57.80
2022-10-05T05:34:05.783Z,57.90
2022-10-05T05:36:51.951Z,58.50
2022-10-05T05:39:29.405Z,57.90
2022-10-05T05:42:11.886Z,57.90
2022-10-05T05:44:48.082Z,58.50
2022-10-05T05:47:35.139Z,57.90
2022-10-05T05:50:22.785Z,57.90
2022-10-05T05:53:05.563Z,58.00
2022-10-05T05:55:59.118Z,57.90
2022-10-05T05:58:54.814Z,57.90
2022-10-05T06:01:33.628Z,57.80
2022-10-05T06:04:27.833Z,58.40
2022-10-05T06:06:58.047Z,59.60
2022-10-05T06:09:35.566Z,57.60
2022-10-05T06:12:42.675Z,57.50
2022-10-05T06:15:35.035Z,57.50
2022-10-05T06:18:10.097Z,57.40
2022-10-05T06:20:53.125Z,57.30
2022-10-05T06:23:27.432Z,57.40
2022-10-05T06:26:14.060Z,57.40
2022-10-05T06:28:43.178Z,57.30
2022-10-05T06:31:38.130Z,57.30
2022-10-05T06:34:45.653Z,57.20
2022-10-05T06:37:39.688Z,57.40
2022-10-05T06:40:52.018Z,57.80
2022-10-05T06:47:02.219Z,58.40
2022-10-05T07:03:14.667Z,58.40
2022-10-05T07:06:03.295Z,58.40
2022-10-05T07:09:21.140Z,58.40
2022-10-05T07:12:21.479Z,58.40
2022-10-05T07:15:19.255Z,58.40
2022-10-05T07:18:16.171Z,58.50
2022-10-05T07:26:29.059Z,58.70
2022-10-05T07:34:30.131Z,58.50
2022-10-05T07:37:38.122Z,58.40
2022-10-05T07:40:30.129Z,58.40
2022-10-05T07:45:36.389Z,58.40
2022-10-05T07:48:26.302Z,58.20
2022-10-05T07:51:38.585Z,58.10
2022-10-05T07:57:26.085Z,58.00
2022-10-05T08:00:00.346Z,58.10
2022-10-05T08:05:24.520Z,57.80
2022-10-05T08:10:35.459Z,57.80
2022-10-05T08:23:47.953Z,57.50
2022-10-05T08:29:18.009Z,57.50
2022-10-05T09:00:20.836Z,57.00
2022-10-05T09:06:07.208Z,57.10
2022-10-05T09:11:37.125Z,57.00
2022-10-05T09:17:02.059Z,56.80
2022-10-05T09:30:38.785Z,57.10
2022-10-05T09:36:22.050Z,57.10
2022-10-05T09:55:41.983Z,57.80
2022-10-05T10:08:52.411Z,57.50
2022-10-05T10:38:02.480Z,57.00
2022-10-05T10:41:00.960Z,57.00
2022-10-05T11:10:14.674Z,56.70
2022-10-05T11:26:03.295Z,56.60
2022-10-05T11:41:46.351Z,56.40
2022-10-05T11:50:08.372Z,56.50
2022-10-05T12:11:29.496Z,56.50
2022-10-05T12:37:54.023Z,56.50
2022-10-05T12:50:54.877Z,56.70
2022-10-05T13:04:42.275Z,56.40
2022-10-05T13:07:12.044Z,56.50
2022-10-05T13:10:08.885Z,56.50
2022-10-05T13:18:18.774Z,56.30
2022-10-05T13:20:57.473Z,56.50
2022-10-05T13:23:34.987Z,56.40
2022-10-05T13:36:38.563Z,56.30
2022-10-05T13:39:38.352Z,56.30
2022-10-05T13:42:31.479Z,56.90
2022-10-05T15:07:17.355Z,56.40
2022-10-05T15:14:51.556Z,57.10
2022-10-05T15:40:20.731Z,56.90
2022-10-05T16:00:58.629Z,57.20
2022-10-05T16:14:31.835Z,56.90
2022-10-05T16:27:22.307Z,57.30
2022-10-05T16:37:58.110Z,57.00
2022-10-05T16:43:49.472Z,57.60
2022-10-05T16:46:40.966Z,57.20
2022-10-05T16:54:51.392Z,57.70
2022-10-05T17:11:10.519Z,57.80
2022-10-05T17:16:44.783Z,57.90
2022-10-05T17:24:48.200Z,58.60
2022-10-05T17:30:15.568Z,58.70
2022-10-05T17:33:04.455Z,59.00
2022-10-05T17:35:53.716Z,59.40
2022-10-05T17:59:46.194Z,58.60
2022-10-05T18:05:04.497Z,58.60
2022-10-05T18:10:28.711Z,59.30
2022-10-05T18:18:32.579Z,59.30
2022-10-05T18:21:08.994Z,59.20
2022-10-05T18:31:28.256Z,58.90
2022-10-05T18:39:35.316Z,59.80
2022-10-05T18:42:32.867Z,58.90
2022-10-05T18:53:22.357Z,59.00
2022-10-05T18:58:42.747Z,59.90
2022-10-05T19:09:30.361Z,59.30
2022-10-05T19:12:23.333Z,59.30
2022-10-05T19:17:50.894Z,59.90
2022-10-05T19:23:22.108Z,59.50
2022-10-05T19:25:54.655Z,59.60
2022-10-05T20:04:34.028Z,58.40
2022-10-05T20:09:30.006Z,58.80
2022-10-05T20:14:32.455Z,58.40
2022-10-05T20:20:36.932Z,57.80
2022-10-05T20:31:06.626Z,58.20
2022-10-05T21:50:03.689Z,57.30
2022-10-05T22:07:19.130Z,56.70
2022-10-05T23:31:15.796Z,55.60
2022-10-05T23:36:14.357Z,55.60
2022-10-05T23:43:36.782Z,55.20
2022-10-05T23:58:22.649Z,55.50
